Time;durP1;ratioP1;P1;durP2;ratioP2;P2;SDS_P1;SDS_P2;PMS_P1;PMS_P2;Temp;Humidity;BMP_temperature;BMP_pressure;BME280_temperature;BME280_humidity;BME280_pressure;Samples;Min_cycle;Max_cycle;Signal;HPM_P1;HPM_P2
2019/04/08 00:01:17;;;;;;;14.6;13.1;;;;;;;9.74;80.65527;950.779;;;;
2019/04/08 00:03:42;;;;;;;14.7;13.2;;;;;;;9.61;81.4248;950.8362;;;;
2019/04/08 00:06:07;;;;;;;13.8;12.4;;;;;;;9.67;81.35547;950.8468;;;;
2019/04/08 00:08:32;;;;;;;14.5;13;;;;;;;9.6;81.90625;950.7996;;;;
2019/04/08 00:10:58;;;;;;;14.8;13.4;;;;;;;9.52;83.29688;950.8126;;;;
2019/04/08 00:13:23;;;;;;;15.5;13.9;;;;;;;9.4;84.03223;950.7755;;;;
2019/04/08 00:15:49;;;;;;;15.4;13.8;;;;;;;9.4;84.52734;950.7589;;;;
2019/04/08 00:18:14;;;;;;;17.4;15.5;;;;;;;9.3;85.29102;950.7997;;;;
2019/04/08 00:20:41;;;;;;;16.8;15.1;;;;;;;9.21;85.3877;950.7848;;;;
2019/04/08 00:23:06;;;;;;;16.8;15.1;;;;;;;9.2;86.08789;950.7854;;;;
2019/04/08 00:25:32;;;;;;;16.1;14.5;;;;;;;9.18;85.47266;950.8392;;;;
2019/04/08 00:27:57;;;;;;;16.5;14.8;;;;;;;9.21;86.05469;950.9164;;;;
2019/04/08 00:30:22;;;;;;;17.2;15.4;;;;;;;9.2;85.98242;950.9091;;;;
2019/04/08 00:32:47;;;;;;;17.4;15.6;;;;;;;9.14;86.22461;950.8052;;;;
2019/04/08 00:35:12;;;;;;;19.2;17.2;;;;;;;9.09;86.78906;950.8497;;;;
2019/04/08 00:37:37;;;;;;;18.2;16.4;;;;;;;9.12;86.19629;950.8676;;;;
2019/04/08 00:40:02;;;;;;;19.1;17.2;;;;;;;9.13;86.67188;950.9171;;;;
2019/04/08 00:42:27;;;;;;;20.3;18.2;;;;;;;9.04;87.04297;950.949;;;;
2019/04/08 00:44:53;;;;;;;18.7;16.8;;;;;;;9.06;86.98926;950.8914;;;;
2019/04/08 00:47:18;;;;;;;19.1;17.2;;;;;;;9.1;86.88477;950.9372;;;;
2019/04/08 00:49:43;;;;;;;19;17.1;;;;;;;9.14;86.88086;950.9839;;;;
2019/04/08 00:52:08;;;;;;;17.1;15.4;;;;;;;9.16;86.37793;950.9821;;;;
2019/04/08 00:54:33;;;;;;;19.3;17.3;;;;;;;9.14;86.62598;950.9034;;;;
2019/04/08 00:56:59;;;;;;;17.9;16.1;;;;;;;9.2;86.4082;950.9091;;;;
2019/04/08 00:59:23;;;;;;;18.8;17;;;;;;;9.08;86.83301;950.9095;;;;
2019/04/08 01:01:49;;;;;;;19.5;17.6;;;;;;;8.97;87.40918;950.948;;;;
2019/04/08 01:04:14;;;;;;;18.2;16.4;;;;;;;9.11;86.6084;951.0295;;;;
2019/04/08 01:06:39;;;;;;;18.8;16.9;;;;;;;9.11;86.80469;950.9706;;;;
2019/04/08 01:09:06;;;;;;;19.1;17.2;;;;;;;9;87.18652;951.0211;;;;
2019/04/08 01:11:29;;;;;;;17.3;15.5;;;;;;;9.05;86.83789;950.9904;;;;
2019/04/08 01:13:54;;;;;;;17.1;15.3;;;;;;;9.06;87.04688;951.0062;;;;
2019/04/08 01:16:19;;;;;;;16.5;14.9;;;;;;;9.08;86.85645;951.0706;;;;
2019/04/08 01:18:45;;;;;;;17.2;15.4;;;;;;;9.07;86.83008;951.0603;;;;
2019/04/08 01:21:09;;;;;;;18.5;16.7;;;;;;;8.94;87.71289;951.0533;;;;
2019/04/08 01:23:34;;;;;;;18.2;16.3;;;;;;;9;86.94336;951.0044;;;;
2019/04/08 01:26:00;;;;;;;18.1;16.2;;;;;;;8.99;87.45898;951.0986;;;;
2019/04/08 01:28:25;;;;;;;19;17;;;;;;;8.95;87.66992;951.0096;;;;
2019/04/08 01:30:50;;;;;;;19.5;17.4;;;;;;;8.97;87.80078;950.9734;;;;
2019/04/08 01:33:15;;;;;;;18.8;16.9;;;;;;;8.93;87.96387;950.9483;;;;
2019/04/08 01:35:40;;;;;;;18.8;16.9;;;;;;;8.96;87.67188;950.9615;;;;
2019/04/08 01:38:05;;;;;;;18.8;16.9;;;;;;;8.97;87.60547;951.0715;;;;
2019/04/08 01:40:30;;;;;;;18.5;16.7;;;;;;;8.99;87.58594;951.0564;;;;
2019/04/08 01:42:55;;;;;;;20.2;18.2;;;;;;;8.96;88.0166;951.1403;;;;
2019/04/08 01:45:21;;;;;;;20.5;18.1;;;;;;;8.99;87.74707;951.0818;;;;
2019/04/08 01:47:46;;;;;;;18.7;16.8;;;;;;;9.03;88.04102;951.0734;;;;
2019/04/08 01:50:11;;;;;;;19.7;17.6;;;;;;;;;;;;;
2019/04/08 01:52:36;;;;;;;20.2;18.1;;;;;;;;;;;;;
2019/04/08 01:55:02;;;;;;;19.5;17.5;;;;;;;;;;;;;
2019/04/08 01:57:26;;;;;;;19.1;17.2;;;;;;;;;;;;;
2019/04/08 01:59:51;;;;;;;20.4;18.3;;;;;;;;;;;;;
2019/04/08 02:02:16;;;;;;;22.1;19.8;;;;;;;;;;;;;
2019/04/08 02:04:42;;;;;;;22;19.4;;;;;;;;;;;;;
2019/04/08 02:07:07;;;;;;;19.5;17.5;;;;;;;;;;;;;
2019/04/08 02:09:32;;;;;;;21.4;18.8;;;;;;;;;;;;;
2019/04/08 02:11:57;;;;;;;18.9;16.9;;;;;;;;;;;;;
2019/04/08 02:14:22;;;;;;;22.9;20.4;;;;;;;;;;;;;
2019/04/08 02:16:47;;;;;;;20.2;18;;;;;;;;;;;;;
2019/04/08 02:19:12;;;;;;;21;18.9;;;;;;;;;;;;;
2019/04/08 02:21:37;;;;;;;22.9;19.3;;;;;;;;;;;;;
2019/04/08 02:24:02;;;;;;;21.9;19.1;;;;;;;;;;;;;
2019/04/08 02:26:28;;;;;;;21.3;19;;;;;;;;;;;;;
2019/04/08 02:28:53;;;;;;;21.1;19;;;;;;;;;;;;;
2019/04/08 02:31:18;;;;;;;19.5;17.5;;;;;;;;;;;;;
2019/04/08 02:33:43;;;;;;;21;18.8;;;;;;;;;;;;;
2019/04/08 02:36:09;;;;;;;20.8;18.6;;;;;;;;;;;;;
2019/04/08 02:38:34;;;;;;;20.6;18.5;;;;;;;;;;;;;
2019/04/08 02:41:01;;;;;;;19.8;17.8;;;;;;;;;;;;;
2019/04/08 02:43:26;;;;;;;19.7;17.7;;;;;;;;;;;;;
2019/04/08 02:45:54;;;;;;;19.7;17.7;;;;;;;;;;;;;
2019/04/08 02:48:27;;;;;;;19.7;17.7;;;;;;;;;;;;;
2019/04/08 02:50:50;;;;;;;16.7;15.1;;;;;;;;;;;;;
2019/04/08 02:53:15;;;;;;;17.5;15.7;;;;;;;;;;;;;
2019/04/08 02:55:40;;;;;;;17.4;15.6;;;;;;;;;;;;;
2019/04/08 02:58:06;;;;;;;15.9;14.3;;;;;;;;;;;;;
2019/04/08 03:00:31;;;;;;;17.8;15.5;;;;;;;;;;;;;
2019/04/08 03:02:56;;;;;;;16.1;14.4;;;;;;;;;;;;;
2019/04/08 03:05:21;;;;;;;15.2;13.6;;;;;;;;;;;;;
2019/04/08 03:07:46;;;;;;;16;14.4;;;;;;;;;;;;;
2019/04/08 03:10:11;;;;;;;15.3;13.7;;;;;;;;;;;;;
2019/04/08 03:12:36;;;;;;;14.5;13;;;;;;;;;;;;;
2019/04/08 03:15:01;;;;;;;15.2;13.7;;;;;;;;;;;;;
2019/04/08 03:17:26;;;;;;;14.6;13.2;;;;;;;;;;;;;
2019/04/08 03:19:52;;;;;;;15.5;13.9;;;;;;;;;;;;;
2019/04/08 03:22:17;;;;;;;15.8;14.2;;;;;;;;;;;;;
2019/04/08 03:24:42;;;;;;;14.4;13;;;;;;;;;;;;;
2019/04/08 03:27:07;;;;;;;14.3;12.9;;;;;;;;;;;;;
2019/04/08 03:29:32;;;;;;;14.4;12.9;;;;;;;;;;;;;
2019/04/08 03:31:57;;;;;;;14.6;12.6;;;;;;;;;;;;;
2019/04/08 03:34:23;;;;;;;13;11.7;;;;;;;;;;;;;
2019/04/08 03:36:47;;;;;;;13.8;12.3;;;;;;;;;;;;;
2019/04/08 03:39:13;;;;;;;13.2;11.9;;;;;;;;;;;;;
2019/04/08 03:41:38;;;;;;;12.8;11.6;;;;;;;;;;;;;
2019/04/08 03:44:03;;;;;;;14.2;12.9;;;;;;;;;;;;;
2019/04/08 03:46:28;;;;;;;13;11.8;;;;;;;;;;;;;
2019/04/08 03:48:53;;;;;;;13.9;12.5;;;;;;;;;;;;;
2019/04/08 03:51:18;;;;;;;12.8;11.5;;;;;;;;;;;;;
2019/04/08 03:53:44;;;;;;;12.9;11.6;;;;;;;;;;;;;
2019/04/08 03:56:09;;;;;;;12.6;11.3;;;;;;;;;;;;;
2019/04/08 03:58:34;;;;;;;11.9;10.7;;;;;;;;;;;;;
2019/04/08 04:02:28;;;;;;;11.9;10.7;;;;;;;8.92;85.13574;951.91;;;;
2019/04/08 04:07:22;;;;;;;11.6;10.5;;;;;;;8.78;85.55566;951.9174;;;;
2019/04/08 04:09:44;;;;;;;12.9;11.6;;;;;;;8.72;86.5752;951.9073;;;;
2019/04/08 04:12:10;;;;;;;12.3;11.1;;;;;;;8.8;85.67383;951.949;;;;
2019/04/08 04:14:35;;;;;;;11.6;10.4;;;;;;;8.79;85.82031;951.9381;;;;
2019/04/08 04:17:03;;;;;;;12;10.8;;;;;;;8.81;85.29883;951.9308;;;;
2019/04/08 04:19:29;;;;;;;10.8;9.7;;;;;;;8.82;85.45898;951.9084;;;;
2019/04/08 04:21:54;;;;;;;11.1;10;;;;;;;8.81;85.43457;951.9779;;;;
2019/04/08 04:24:19;;;;;;;11.5;10.3;;;;;;;8.66;85.93262;951.9093;;;;
2019/04/08 04:26:45;;;;;;;10.5;9.4;;;;;;;8.73;85.62402;951.9576;;;;
2019/04/08 04:29:10;;;;;;;12;10.8;;;;;;;8.63;86.57129;951.9041;;;;
2019/04/08 04:31:37;;;;;;;10.7;9.6;;;;;;;8.78;85.6709;951.8536;;;;
2019/04/08 04:34:02;;;;;;;9.9;8.9;;;;;;;8.71;85.47266;951.972;;;;
2019/04/08 04:36:27;;;;;;;10;9;;;;;;;8.63;85.11035;951.9684;;;;
2019/04/08 04:38:53;;;;;;;8.7;7.8;;;;;;;8.77;84.09277;952.0801;;;;
2019/04/08 04:41:18;;;;;;;9;8.1;;;;;;;8.81;83.90625;952.0505;;;;
2019/04/08 04:43:43;;;;;;;9.4;8.5;;;;;;;8.63;84.83594;952.1039;;;;
2019/04/08 04:46:08;;;;;;;8.4;7.6;;;;;;;8.68;84.37598;952.1198;;;;
2019/04/08 04:48:33;;;;;;;8.6;7.8;;;;;;;8.73;84.09766;952.1314;;;;
2019/04/08 04:51:00;;;;;;;8.8;7.9;;;;;;;8.66;84.41699;952.1947;;;;
2019/04/08 04:53:25;;;;;;;8.7;7.9;;;;;;;8.66;84.04883;952.2369;;;;
2019/04/08 04:55:52;;;;;;;7.2;6.5;;;;;;;8.78;83.625;952.1765;;;;
2019/04/08 04:58:17;;;;;;;7.5;6.8;;;;;;;8.85;83.21191;952.2119;;;;
2019/04/08 05:00:43;;;;;;;9;8.1;;;;;;;8.61;84.3252;952.2547;;;;
2019/04/08 05:03:08;;;;;;;7;6.3;;;;;;;8.74;84.05273;952.1944;;;;
2019/04/08 05:05:34;;;;;;;8.3;7.5;;;;;;;8.68;84.20215;952.2522;;;;
2019/04/08 05:08:00;;;;;;;8.8;7.9;;;;;;;8.66;84.78418;952.3047;;;;
2019/04/08 05:10:25;;;;;;;8.7;7.8;;;;;;;8.7;84.42578;952.2829;;;;
2019/04/08 05:12:51;;;;;;;9.3;8.3;;;;;;;8.66;84.96777;952.2585;;;;
2019/04/08 05:15:16;;;;;;;9.5;8.5;;;;;;;8.72;84.70313;952.3066;;;;
2019/04/08 05:17:43;;;;;;;10.3;9.3;;;;;;;8.66;85.09473;952.4028;;;;
2019/04/08 05:20:08;;;;;;;9.8;8.8;;;;;;;8.75;84.78809;952.4612;;;;
2019/04/08 05:22:34;;;;;;;10.2;9.2;;;;;;;8.68;85.22559;952.4426;;;;
2019/04/08 05:24:59;;;;;;;11.5;10.4;;;;;;;8.65;85.81641;952.5017;;;;
2019/04/08 05:27:24;;;;;;;11;9.9;;;;;;;8.66;85.54199;952.5645;;;;
2019/04/08 05:29:50;;;;;;;11.6;10.5;;;;;;;8.71;85.7832;952.592;;;;
2019/04/08 05:32:15;;;;;;;12;10.7;;;;;;;8.81;85.36719;952.6453;;;;
2019/04/08 05:34:40;;;;;;;12;10.8;;;;;;;8.69;85.81152;952.6761;;;;
2019/04/08 05:37:05;;;;;;;11.8;10.5;;;;;;;8.74;85.74219;952.679;;;;
2019/04/08 05:39:30;;;;;;;12;10.8;;;;;;;8.8;85.53613;952.7056;;;;
2019/04/08 05:41:55;;;;;;;13.2;11.9;;;;;;;8.79;85.52344;952.7369;;;;
2019/04/08 05:44:21;;;;;;;15;13.5;;;;;;;8.76;86.18457;952.7274;;;;
2019/04/08 05:46:46;;;;;;;14.6;13.2;;;;;;;8.69;86.77734;952.7527;;;;
2019/04/08 05:49:24;;;;;;;14.8;13.3;;;;;;;8.71;86.64453;952.7834;;;;
2019/04/08 05:51:43;;;;;;;15.8;14.2;;;;;;;8.68;86.76367;952.7623;;;;
2019/04/08 05:54:09;;;;;;;15.3;13.8;;;;;;;8.69;86.75391;952.7606;;;;
2019/04/08 05:56:32;;;;;;;15.9;14.3;;;;;;;8.69;86.59277;952.8077;;;;
2019/04/08 05:59:04;;;;;;;16.5;14.9;;;;;;;8.73;86.6123;952.7996;;;;
2019/04/08 06:06:16;;;;;;;17;15.3;;;;;;;8.77;86.36816;952.7484;;;;
2019/04/08 06:11:11;;;;;;;17.2;15.4;;;;;;;8.88;85.95508;952.825;;;;
2019/04/08 06:13:42;;;;;;;17.6;15.8;;;;;;;8.91;85.68555;952.7745;;;;
2019/04/08 06:18:26;;;;;;;18.9;16.9;;;;;;;8.83;85.89844;952.8181;;;;
2019/04/08 06:20:55;;;;;;;19.4;17.5;;;;;;;8.79;86.50977;952.8055;;;;
2019/04/08 06:30:36;;;;;;;18.7;16.8;;;;;;;8.98;85.61816;952.865;;;;
2019/04/08 06:33:05;;;;;;;19.2;17.3;;;;;;;8.94;85.64551;952.8478;;;;
2019/04/08 06:35:26;;;;;;;19.4;17.5;;;;;;;8.73;87.14063;952.8633;;;;
2019/04/08 06:42:49;;;;;;;18.9;17;;;;;;;9.02;86.06152;952.8313;;;;
2019/04/08 06:45:11;;;;;;;16.9;15.3;;;;;;;9.15;84.71973;952.8887;;;;
2019/04/08 06:47:35;;;;;;;18.6;16.7;;;;;;;8.96;85.56641;952.8677;;;;
2019/04/08 06:50:09;;;;;;;18.3;16.4;;;;;;;8.99;85.74609;952.8596;;;;
2019/04/08 06:52:32;;;;;;;18.2;16.3;;;;;;;8.95;85.98047;952.9108;;;;
2019/04/08 06:54:58;;;;;;;18.1;16.3;;;;;;;8.91;86.00391;952.9158;;;;
2019/04/08 06:57:34;;;;;;;17.3;15.5;;;;;;;8.94;85.80664;952.9077;;;;
2019/04/08 06:59:46;;;;;;;17.1;15.5;;;;;;;8.98;85.73242;952.8817;;;;
2019/04/08 07:02:08;;;;;;;18;16.2;;;;;;;8.93;85.9541;952.9083;;;;
2019/04/08 07:04:45;;;;;;;16.2;14.6;;;;;;;8.92;85.93848;952.9356;;;;
2019/04/08 07:07:05;;;;;;;18.1;16.3;;;;;;;8.8;86.38672;952.9352;;;;
2019/04/08 07:11:51;;;;;;;16.9;15.1;;;;;;;8.9;85.59082;952.9294;;;;
2019/04/08 07:16:41;;;;;;;18.4;16.5;;;;;;;8.75;86.46582;952.9587;;;;
2019/04/08 07:21:37;;;;;;;17.8;15.9;;;;;;;8.81;85.7666;952.9009;;;;
2019/04/08 07:23:58;;;;;;;17.8;16;;;;;;;8.87;86.22656;952.865;;;;
2019/04/08 07:26:21;;;;;;;18.4;16.5;;;;;;;8.92;85.68555;952.91;;;;
2019/04/08 07:28:50;;;;;;;15.1;13.6;;;;;;;9.08;84.6709;952.9475;;;;
2019/04/08 07:34:23;;;;;;;18;15.7;;;;;;;8.98;85.21582;952.975;;;;
2019/04/08 07:41:25;;;;;;;18.9;16.9;;;;;;;8.81;86.19336;952.969;;;;
2019/04/08 07:46:18;;;;;;;19;17;;;;;;;8.84;85.82129;952.9311;;;;
2019/04/08 07:48:42;;;;;;;18.2;16.4;;;;;;;9.14;84.95996;953.0005;;;;
2019/04/08 07:51:08;;;;;;;18;16.2;;;;;;;9.39;83.34082;952.9598;;;;
2019/04/08 08:03:27;;;;;;;16.6;14.8;;;;;;;9.5;82.24414;953.101;;;;
2019/04/08 08:05:57;;;;;;;16.1;14.4;;;;;;;9.56;82.60156;953.171;;;;
2019/04/08 08:16:19;;;;;;;14.7;13.2;;;;;;;9.57;80.72559;953.2428;;;;
2019/04/08 08:18:56;;;;;;;16.5;13.7;;;;;;;9.7;80.55469;953.2067;;;;
2019/04/08 08:21:22;;;;;;;14.1;12.7;;;;;;;9.99;80.0332;953.2288;;;;
2019/04/08 08:31:49;;;;;;;14;12.5;;;;;;;9.91;79.2002;953.2589;;;;
2019/04/08 08:41:40;;;;;;;14.6;13.2;;;;;;;10.02;78.58789;953.2853;;;;
2019/04/08 08:44:05;;;;;;;14.6;13.2;;;;;;;10.3;76.92969;953.2926;;;;
2019/04/08 08:53:55;;;;;;;15.2;13.7;;;;;;;9.89;77.83789;953.185;;;;
2019/04/08 08:58:40;;;;;;;13.7;12.4;;;;;;;10.08;76.91504;953.1887;;;;
2019/04/08 09:06:09;;;;;;;12.2;11;;;;;;;11.1;73.62012;953.1814;;;;
2019/04/08 09:08:44;;;;;;;12.1;10.9;;;;;;;11.02;72.41504;953.2642;;;;
2019/04/08 09:14:14;;;;;;;11.8;10.6;;;;;;;10.56;73.82715;953.121;;;;
2019/04/08 09:15:53;;;;;;;11.4;10.3;;;;;;;10.81;73.06152;953.1694;;;;
2019/04/08 09:18:20;;;;;;;11.2;10.1;;;;;;;10.92;72.66406;953.1942;;;;
2019/04/08 09:20:51;;;;;;;9.8;8.9;;;;;;;11.04;70.28125;953.1898;;;;
2019/04/08 09:28:06;;;;;;;11.5;9.8;;;;;;;10.78;71.00098;953.2241;;;;
2019/04/08 09:33:04;;;;;;;11.3;10.2;;;;;;;10.65;71.33789;953.2009;;;;
2019/04/08 09:35:26;;;;;;;11.9;10.6;;;;;;;10.37;73.04395;953.2199;;;;
2019/04/08 09:37:54;;;;;;;10.9;9.8;;;;;;;10.8;71.71973;953.2773;;;;
2019/04/08 09:40:13;;;;;;;12.5;11.2;;;;;;;10.43;73.49316;953.2983;;;;
2019/04/08 09:49:54;;;;;;;11.7;10.5;;;;;;;11.02;71.46777;953.2642;;;;
2019/04/08 09:54:49;;;;;;;11.8;10.6;;;;;;;11.23;70.80957;953.2647;;;;
2019/04/08 11:12:21;;;;;;;9;8.1;;;;;;;11.16;69.64258;953.4138;;;;
2019/04/08 11:14:47;;;;;;;11.1;10;;;;;;;10.97;72.62695;953.4233;;;;
2019/04/08 11:17:08;;;;;;;10;9;;;;;;;11.19;68.58398;953.3805;;;;
2019/04/08 11:19:41;;;;;;;10.5;9.2;;;;;;;10.93;70.2041;953.4286;;;;
2019/04/08 11:24:38;;;;;;;10.5;9.4;;;;;;;11.02;72.27637;953.405;;;;
2019/04/08 11:39:13;;;;;;;10;9.1;;;;;;;11.88;67.85938;953.4061;;;;
2019/04/08 11:41:46;;;;;;;9.5;8.6;;;;;;;12.27;68.68457;953.4358;;;;
2019/04/08 11:49:14;;;;;;;9.7;8.7;;;;;;;12.14;67.13574;953.3658;;;;
2019/04/08 12:05:59;;;;;;;10;9;;;;;;;12.14;67.5293;953.3658;;;;
2019/04/08 12:10:40;;;;;;;9.2;8.3;;;;;;;11.78;68.27344;953.3272;;;;
2019/04/08 12:15:29;;;;;;;11.2;9.3;;;;;;;11.91;67.96777;953.3381;;;;
2019/04/08 12:18:49;;;;;;;13.8;10.4;;;;;;;11.77;68.35059;953.2992;;;;
2019/04/08 12:25:08;;;;;;;10.8;9.8;;;;;;;12;65.8877;953.2454;;;;
2019/04/08 12:27:34;;;;;;;9.5;8.6;;;;;;;12.24;65.63477;953.1986;;;;
2019/04/08 12:30:06;;;;;;;11.7;10.5;;;;;;;12.03;66.57324;953.204;;;;
2019/04/08 12:37:16;;;;;;;12.1;9.9;;;;;;;12.2;66.80957;953.2003;;;;
2019/04/08 12:42:05;;;;;;;10.9;9.8;;;;;;;11.96;66.90137;953.2589;;;;
2019/04/08 12:44:32;;;;;;;10.6;9.5;;;;;;;12.17;66.27246;953.1605;;;;
2019/04/08 12:46:54;;;;;;;10.3;9.3;;;;;;;12.44;66.21094;953.1575;;;;
2019/04/08 12:51:47;;;;;;;10.4;9.3;;;;;;;12.71;63.08398;953.125;;;;
2019/04/08 12:54:18;;;;;;;11.4;10.3;;;;;;;13.08;61.46582;953.1039;;;;
2019/04/08 12:56:38;;;;;;;10.3;9.3;;;;;;;13.1;61.96875;953.1219;;;;
2019/04/08 13:09:00;;;;;;;10.2;9.1;;;;;;;13.88;60.50977;953.139;;;;
2019/04/08 13:11:30;;;;;;;8.9;8.1;;;;;;;13.8;60.80273;953.1746;;;;
2019/04/08 13:14:10;;;;;;;10.4;8.8;;;;;;;14.1;58.60938;953.1231;;;;
2019/04/08 13:16:46;;;;;;;10.2;9.2;;;;;;;12.93;61.8418;953.2033;;;;
2019/04/08 13:19:21;;;;;;;9.8;8.9;;;;;;;13.84;60.04004;953.1865;;;;
2019/04/08 13:21:56;;;;;;;10.7;9.7;;;;;;;13.41;61.78125;953.1987;;;;
2019/04/08 13:24:32;;;;;;;10;9;;;;;;;13.9;58.69922;953.1234;;;;
2019/04/08 13:27:11;;;;;;;9.7;8.8;;;;;;;14.08;57.80469;953.1213;;;;
2019/04/08 13:29:36;;;;;;;9.5;8.6;;;;;;;14.58;56.48535;953.1156;;;;
2019/04/08 13:32:15;;;;;;;10.4;9.2;;;;;;;14.61;55.92969;953.1167;;;;
2019/04/08 13:34:43;;;;;;;10.1;8.7;;;;;;;14.61;56.24512;953.0731;;;;
2019/04/08 13:37:22;;;;;;;10.2;9.2;;;;;;;14.01;59.81934;953.0916;;;;
2019/04/08 13:39:48;;;;;;;9.7;8.7;;;;;;;14.17;57.85059;953.1233;;;;
2019/04/08 13:42:14;;;;;;;10.6;9.5;;;;;;;13.51;59.14648;953.1181;;;;
2019/04/08 13:44:52;;;;;;;9.6;8.7;;;;;;;13.23;60.76855;953.1233;;;;
2019/04/08 13:47:20;;;;;;;9.5;8.6;;;;;;;13.74;60.83984;953.1094;;;;
2019/04/08 13:49:54;;;;;;;9;8.1;;;;;;;13.72;59.01172;953.0953;;;;
2019/04/08 13:52:19;;;;;;;9.7;8.8;;;;;;;12.97;61.68457;953.0483;;;;
2019/04/08 13:54:44;;;;;;;10.3;8.7;;;;;;;13.47;59.76855;953.0666;;;;
2019/04/08 13:57:09;;;;;;;9.2;8.3;;;;;;;13.7;58.98535;953.0035;;;;
2019/04/08 13:59:39;;;;;;;9.7;8.5;;;;;;;13.17;62.07227;953.0538;;;;
2019/04/08 14:02:09;;;;;;;9.3;8.4;;;;;;;13.12;62.48242;952.9657;;;;
2019/04/08 14:04:41;;;;;;;8.9;8;;;;;;;12.85;61.875;953.0123;;;;
2019/04/08 14:07:16;;;;;;;8.6;7.7;;;;;;;13.37;61.12598;953.0151;;;;
2019/04/08 14:09:54;;;;;;;9;8.1;;;;;;;12.94;62.31738;952.9414;;;;
2019/04/08 14:12:24;;;;;;;8.6;7.8;;;;;;;13.07;62.27734;952.9853;;;;
2019/04/08 14:15:00;;;;;;;9.4;8.4;;;;;;;12.5;63.61035;952.9317;;;;
2019/04/08 14:17:36;;;;;;;9;8.1;;;;;;;12.78;62.65332;952.9961;;;;
2019/04/08 14:19:54;;;;;;;8.4;7.6;;;;;;;12.77;62.13086;953.0139;;;;
2019/04/08 14:22:33;;;;;;;7.9;7.2;;;;;;;13.13;62.22852;953.0033;;;;
2019/04/08 14:25:03;;;;;;;8.9;8;;;;;;;13.02;61.94629;952.9526;;;;
2019/04/08 14:27:41;;;;;;;9.3;7.9;;;;;;;13.22;60.66309;952.9741;;;;
2019/04/08 14:30:17;;;;;;;9.2;8.3;;;;;;;13.31;60.32617;952.9377;;;;
2019/04/08 14:32:45;;;;;;;9.1;8.2;;;;;;;13.15;60.75781;952.9323;;;;
2019/04/08 14:35:17;;;;;;;9.9;8.4;;;;;;;12.91;62.24414;952.8553;;;;
2019/04/08 14:37:54;;;;;;;9.8;8.8;;;;;;;12.45;64.37891;952.8998;;;;
2019/04/08 14:40:36;;;;;;;9.4;8.5;;;;;;;12.78;62.00586;952.8884;;;;
2019/04/08 14:43:01;;;;;;;9.3;8.3;;;;;;;13.32;60.46777;952.9445;;;;
2019/04/08 14:45:26;;;;;;;9.1;8.2;;;;;;;13.55;60.8125;952.9323;;;;
2019/04/08 14:47:51;;;;;;;8.5;7.7;;;;;;;13.64;59.61816;952.9551;;;;
2019/04/08 14:50:16;;;;;;;9.3;8.4;;;;;;;13.11;61.19336;952.9706;;;;
2019/04/08 14:52:42;;;;;;;9;8.1;;;;;;;13.07;63.76367;953.0061;;;;
2019/04/08 14:55:07;;;;;;;9.3;7.7;;;;;;;12.97;61.35938;952.911;;;;
2019/04/08 14:57:32;;;;;;;8.9;7.4;;;;;;;13.2;61.07715;952.9728;;;;
2019/04/08 14:59:57;;;;;;;9.4;7.7;;;;;;;13.44;63.24902;953.0319;;;;
2019/04/08 15:02:22;;;;;;;8.4;7.4;;;;;;;13.12;61.6709;952.9608;;;;
2019/04/08 15:04:50;;;;;;;8.7;7.8;;;;;;;12.83;63.42578;952.9853;;;;
2019/04/08 15:07:15;;;;;;;9.7;7.4;;;;;;;13.19;62.12109;952.9993;;;;
2019/04/08 15:09:40;;;;;;;8.6;7.8;;;;;;;13.38;60.99902;952.9666;;;;
2019/04/08 15:12:05;;;;;;;7.9;7.1;;;;;;;13.22;61.75488;952.9741;;;;
2019/04/08 15:14:33;;;;;;;7.9;7.1;;;;;;;13.55;60.63867;952.9886;;;;
2019/04/08 15:16:58;;;;;;;8.5;7.6;;;;;;;13.3;61.02148;952.9734;;;;
2019/04/08 15:19:23;;;;;;;8.4;7.5;;;;;;;13.44;61.25098;952.9211;;;;
2019/04/08 15:21:48;;;;;;;7.8;6.9;;;;;;;13.75;60.2373;952.9708;;;;
2019/04/08 15:24:14;;;;;;;8.6;7.7;;;;;;;13.85;58.45996;952.9154;;;;
2019/04/08 15:26:40;;;;;;;8.5;7.7;;;;;;;13.53;60.55469;952.8925;;;;
2019/04/08 15:29:05;;;;;;;8.5;7.6;;;;;;;13.63;60.33691;952.8661;;;;
2019/04/08 15:31:31;;;;;;;8.6;7.8;;;;;;;13.61;59.88086;952.9114;;;;
2019/04/08 15:33:58;;;;;;;8;7.2;;;;;;;13.59;60.57324;952.9192;;;;
2019/04/08 15:36:23;;;;;;;8.4;7.6;;;;;;;13.66;60.91016;952.9609;;;;
2019/04/08 15:38:49;;;;;;;9.9;8.3;;;;;;;13.13;61.94922;952.9044;;;;
2019/04/08 15:41:14;;;;;;;9.1;8.1;;;;;;;13.54;60.11523;952.8904;;;;
2019/04/08 15:43:39;;;;;;;9.6;7.9;;;;;;;13.49;60.61914;952.9528;;;;
2019/04/08 15:46:06;;;;;;;10.3;8.3;;;;;;;13.22;61.71875;952.949;;;;
2019/04/08 15:48:31;;;;;;;8.7;7.9;;;;;;;13.53;60.9248;952.94;;;;
2019/04/08 15:50:57;;;;;;;11.1;8.4;;;;;;;13.51;61.33008;952.9421;;;;
2019/04/08 15:53:22;;;;;;;8.7;7.8;;;;;;;13.82;61.15332;952.962;;;;
2019/04/08 15:55:48;;;;;;;9.5;8.6;;;;;;;13.15;62.76563;952.9619;;;;
2019/04/08 15:58:13;;;;;;;8.9;7.8;;;;;;;13.76;61.51563;952.9659;;;;
2019/04/08 16:00:39;;;;;;;9.5;8.3;;;;;;;13.8;60.77734;952.952;;;;
2019/04/08 16:03:04;;;;;;;9;8.1;;;;;;;13.5;62.22266;952.9478;;;;
2019/04/08 16:05:31;;;;;;;9.4;8;;;;;;;13.47;61.75391;952.9905;;;;
2019/04/08 16:07:56;;;;;;;9.1;8.1;;;;;;;13.6;61.04102;952.9342;;;;
2019/04/08 16:10:23;;;;;;;10.3;8.7;;;;;;;13.24;61.38379;952.9813;;;;
2019/04/08 16:12:49;;;;;;;8.6;7.8;;;;;;;13.53;60.55469;952.9865;;;;
2019/04/08 16:15:14;;;;;;;9.4;8.4;;;;;;;13.03;62.59668;953.0159;;;;
2019/04/08 16:17:39;;;;;;;8.9;8;;;;;;;13.14;61.95117;952.9933;;;;
2019/04/08 16:20:06;;;;;;;9.3;8.4;;;;;;;13.05;62.51855;952.9782;;;;
2019/04/08 16:22:31;;;;;;;8.9;8;;;;;;;12.95;63.44238;952.9276;;;;
2019/04/08 16:24:58;;;;;;;10.1;8;;;;;;;13.33;62.15332;952.9438;;;;
2019/04/08 16:27:23;;;;;;;8.6;7.7;;;;;;;12.89;63.86426;952.9522;;;;
2019/04/08 16:29:48;;;;;;;9.2;8.2;;;;;;;12.96;63.85254;952.981;;;;
2019/04/08 16:32:13;;;;;;;9;8.1;;;;;;;12.74;65.03613;952.988;;;;
2019/04/08 16:34:38;;;;;;;9.1;7.8;;;;;;;12.99;64.5293;953.0038;;;;
2019/04/08 16:37:03;;;;;;;8.9;7.6;;;;;;;13.17;63.37207;952.9807;;;;
2019/04/08 16:39:28;;;;;;;9.9;7.8;;;;;;;12.88;64.37305;952.9914;;;;
2019/04/08 16:41:54;;;;;;;8.8;7.9;;;;;;;13.08;63.52148;953.0387;;;;
2019/04/08 16:44:19;;;;;;;8.7;7.8;;;;;;;12.69;65.51758;953.049;;;;
2019/04/08 16:46:44;;;;;;;9.2;8.2;;;;;;;12.56;66.30957;953.0098;;;;
2019/04/08 16:49:09;;;;;;;9;7.6;;;;;;;12.63;65.86816;952.9965;;;;
2019/04/08 16:51:34;;;;;;;8.2;7.4;;;;;;;12.69;65.69043;953.0027;;;;
2019/04/08 16:53:59;;;;;;;8.2;7.4;;;;;;;12.69;65.74707;953.0115;;;;
2019/04/08 16:56:24;;;;;;;8.7;7.5;;;;;;;12.68;65.42285;953.055;;;;
2019/04/08 16:58:49;;;;;;;8.5;7.7;;;;;;;12.66;66.24316;953.0491;;;;
2019/04/08 17:01:14;;;;;;;8.5;7.7;;;;;;;12.43;67.63281;953.0991;;;;
2019/04/08 17:03:39;;;;;;;9.3;8.3;;;;;;;12.35;67.79492;953.0491;;;;
2019/04/08 17:06:04;;;;;;;9.1;8.2;;;;;;;12.18;67.57129;953.0917;;;;
2019/04/08 17:08:30;;;;;;;9.5;8.2;;;;;;;12.34;67.13281;953.0591;;;;
2019/04/08 17:10:55;;;;;;;10.3;8.5;;;;;;;12.15;68.41211;953.0737;;;;
2019/04/08 17:13:20;;;;;;;10;8.5;;;;;;;12.25;67.87207;953.0911;;;;
2019/04/08 17:15:46;;;;;;;11;8.6;;;;;;;12.37;67.125;953.0504;;;;
2019/04/08 17:18:12;;;;;;;10.6;9;;;;;;;12.31;67.24414;953.0748;;;;
2019/04/08 17:20:38;;;;;;;9.7;8.7;;;;;;;12.2;68.10645;953.153;;;;
2019/04/08 17:23:03;;;;;;;10.5;9.4;;;;;;;12.09;68.60059;953.1701;;;;
2019/04/08 17:25:29;;;;;;;9.8;8.8;;;;;;;12.08;68.71387;953.1372;;;;
2019/04/08 17:27:53;;;;;;;10.5;9;;;;;;;12.09;68.44922;953.0636;;;;
2019/04/08 17:30:18;;;;;;;10.7;9.6;;;;;;;11.9;69.74902;953.1083;;;;
2019/04/08 17:32:43;;;;;;;9.2;8.3;;;;;;;11.88;70.07031;953.1408;;;;
2019/04/08 17:35:08;;;;;;;10.8;8.5;;;;;;;11.82;69.80664;953.173;;;;
2019/04/08 17:37:33;;;;;;;9.5;8.5;;;;;;;11.83;69.76367;953.1247;;;;
2019/04/08 17:39:58;;;;;;;10.6;8.8;;;;;;;11.87;69.44336;953.1763;;;;
2019/04/08 17:42:24;;;;;;;9.5;8.3;;;;;;;11.85;69.9502;953.1908;;;;
2019/04/08 17:44:49;;;;;;;10.9;9.6;;;;;;;11.82;70.08496;953.1816;;;;
2019/04/08 17:47:16;;;;;;;9.7;8.7;;;;;;;11.78;70.20605;953.195;;;;
2019/04/08 17:49:41;;;;;;;10.3;9.2;;;;;;;11.71;71.0625;953.2456;;;;
2019/04/08 17:52:07;;;;;;;9.5;8.5;;;;;;;11.61;71.27734;953.2961;;;;
2019/04/08 17:54:32;;;;;;;11.6;9.6;;;;;;;11.55;71.20801;953.2273;;;;
2019/04/08 17:56:59;;;;;;;10.1;9.1;;;;;;;11.6;71.5752;953.2553;;;;
2019/04/08 17:59:24;;;;;;;11.2;9.6;;;;;;;11.45;72.38281;953.2776;;;;
2019/04/08 18:01:53;;;;;;;10.7;9.6;;;;;;;11.5;72.06836;953.2969;;;;
2019/04/08 18:04:14;;;;;;;11.6;10;;;;;;;11.57;71.60742;953.2966;;;;
2019/04/08 18:06:41;;;;;;;10.8;9.7;;;;;;;11.45;72.1416;953.3279;;;;
2019/04/08 18:09:07;;;;;;;10.7;9.6;;;;;;;11.4;72.65137;953.3561;;;;
2019/04/08 18:11:33;;;;;;;10.6;9.5;;;;;;;11.45;72.74121;953.3713;;;;
2019/04/08 18:13:58;;;;;;;11.8;10;;;;;;;11.36;72.91113;953.3694;;;;
2019/04/08 18:16:24;;;;;;;11.4;9.8;;;;;;;11.41;72.41113;953.4142;;;;
2019/04/08 18:18:49;;;;;;;10.7;9.6;;;;;;;11.43;72.2627;953.4127;;;;
2019/04/08 18:21:14;;;;;;;10.7;9.6;;;;;;;11.33;73.04395;953.3986;;;;
2019/04/08 18:23:40;;;;;;;11.6;10.3;;;;;;;11.42;72.79492;953.4855;;;;
2019/04/08 18:26:06;;;;;;;12.3;11;;;;;;;11.27;73.93652;953.4778;;;;
2019/04/08 18:28:31;;;;;;;14.9;11.2;;;;;;;11.23;74.12695;953.5208;;;;
2019/04/08 18:30:58;;;;;;;12.8;11.4;;;;;;;11.29;74.27441;953.5442;;;;
2019/04/08 18:35:50;;;;;;;13.5;11.8;;;;;;;11.03;75.31641;953.502;;;;
2019/04/08 18:38:14;;;;;;;14.1;12.2;;;;;;;10.95;75.99512;953.563;;;;
2019/04/08 18:40:43;;;;;;;13.8;12;;;;;;;11.01;75.41504;953.5773;;;;
2019/04/08 18:43:08;;;;;;;13.7;11.8;;;;;;;11.04;75.27148;953.6122;;;;
2019/04/08 18:45:33;;;;;;;13.9;11.7;;;;;;;11.03;75.23535;953.6516;;;;
2019/04/08 18:47:59;;;;;;;12.9;11.5;;;;;;;11.07;75.25488;953.6895;;;;
2019/04/08 18:50:24;;;;;;;14.7;12;;;;;;;11.01;75.25391;953.7438;;;;
2019/04/08 18:52:49;;;;;;;13.2;11.8;;;;;;;11.09;74.9707;953.6906;;;;
2019/04/08 18:55:14;;;;;;;15.4;11.8;;;;;;;11.01;75.33594;953.7221;;;;
2019/04/08 18:57:39;;;;;;;14.7;12.5;;;;;;;10.95;76.00684;953.7501;;;;
2019/04/08 19:00:05;;;;;;;14;12.5;;;;;;;10.88;75.9375;953.7411;;;;